createdAt,value
2023-05-05T00:02:23.841Z,7.31
2023-05-05T00:04:50.450Z,7.28
2023-05-05T00:07:16.969Z,7.30
2023-05-05T00:09:43.296Z,7.31
2023-05-05T00:12:10.015Z,7.26
2023-05-05T00:14:36.372Z,7.24
2023-05-05T00:17:04.029Z,7.25
2023-05-05T00:19:30.748Z,7.24
2023-05-05T00:21:57.083Z,7.14
2023-05-05T00:24:23.509Z,7.08
2023-05-05T00:26:51.026Z,7.10
2023-05-05T00:29:17.413Z,7.12
2023-05-05T00:31:44.128Z,7.06
2023-05-05T00:34:11.012Z,7.03
2023-05-05T00:36:37.414Z,7.03
2023-05-05T00:39:04.243Z,7.00
2023-05-05T00:41:30.727Z,7.01
2023-05-05T00:43:57.123Z,6.94
2023-05-05T00:46:29.635Z,6.89
2023-05-05T00:48:57.321Z,6.86
2023-05-05T00:51:24.320Z,6.86
2023-05-05T00:53:51.592Z,6.87
2023-05-05T00:56:19.576Z,6.86
2023-05-05T00:58:46.681Z,6.82
2023-05-05T01:01:14.159Z,6.82
2023-05-05T01:03:41.545Z,6.78
2023-05-05T01:06:21.115Z,6.72
2023-05-05T01:09:09.036Z,6.64
2023-05-05T01:11:49.735Z,6.59
2023-05-05T01:14:19.205Z,6.58
2023-05-05T01:16:53.255Z,6.63
2023-05-05T01:19:25.553Z,6.60
2023-05-05T01:21:57.498Z,6.60
2023-05-05T01:24:43.928Z,6.63
2023-05-05T01:27:55.969Z,6.60
2023-05-05T01:30:44.014Z,6.50
2023-05-05T01:33:14.696Z,6.55
2023-05-05T01:35:45.784Z,6.51
2023-05-05T01:38:17.997Z,6.46
2023-05-05T01:40:51.499Z,6.43
2023-05-05T01:43:21.761Z,6.36
2023-05-05T01:45:49.512Z,6.32
2023-05-05T01:48:19.717Z,6.32
2023-05-05T01:50:48.789Z,6.37
2023-05-05T01:53:17.463Z,6.38
2023-05-05T01:55:46.153Z,6.42
2023-05-05T01:58:14.646Z,6.38
2023-05-05T02:00:42.669Z,6.34
2023-05-05T02:03:11.002Z,6.32
2023-05-05T02:05:40.154Z,6.28
2023-05-05T02:08:08.778Z,6.27
2023-05-05T02:10:38.022Z,6.23
2023-05-05T02:13:05.377Z,6.25
2023-05-05T02:15:34.143Z,6.25
2023-05-05T02:18:02.017Z,6.28
2023-05-05T02:20:31.573Z,6.29
2023-05-05T02:22:59.560Z,6.31
2023-05-05T02:25:32.290Z,6.36
2023-05-05T02:28:01.418Z,6.36
2023-05-05T02:30:30.727Z,6.32
2023-05-05T02:33:04.948Z,6.36
2023-05-05T02:35:37.778Z,6.26
2023-05-05T02:38:06.685Z,6.27
2023-05-05T02:40:34.704Z,6.31
2023-05-05T02:43:05.634Z,6.36
2023-05-05T02:45:32.614Z,6.31
2023-05-05T02:48:04.026Z,6.26
2023-05-05T02:50:34.062Z,6.28
2023-05-05T02:53:00.979Z,6.32
2023-05-05T02:55:52.260Z,6.22
2023-05-05T02:58:29.013Z,6.21
2023-05-05T03:00:58.442Z,6.13
2023-05-05T03:03:36.984Z,6.11
2023-05-05T03:06:19.079Z,6.11
2023-05-05T03:09:14.676Z,6.05
2023-05-05T03:11:49.612Z,6.04
2023-05-05T03:14:19.491Z,5.98
2023-05-05T03:16:47.477Z,6.00
2023-05-05T03:19:17.712Z,6.04
2023-05-05T03:21:44.960Z,6.08
2023-05-05T03:24:16.018Z,6.07
2023-05-05T03:26:43.134Z,6.10
2023-05-05T03:29:09.886Z,6.13
2023-05-05T03:31:36.791Z,6.19
2023-05-05T03:34:03.337Z,6.14
2023-05-05T03:36:30.842Z,6.19
2023-05-05T03:38:58.569Z,6.23
2023-05-05T03:41:25.770Z,6.16
2023-05-05T03:43:52.141Z,6.08
2023-05-05T03:46:18.896Z,6.11
2023-05-05T03:48:46.027Z,6.09
2023-05-05T03:51:12.961Z,6.12
2023-05-05T03:53:39.694Z,6.05
2023-05-05T03:56:06.195Z,6.06
2023-05-05T03:58:32.731Z,6.11
2023-05-05T04:00:59.579Z,6.09
2023-05-05T04:03:26.081Z,6.12
2023-05-05T04:05:52.582Z,6.05
2023-05-05T04:08:19.304Z,6.08
2023-05-05T04:10:45.789Z,6.15
2023-05-05T04:13:13.692Z,6.13
2023-05-05T04:15:47.468Z,6.07
2023-05-05T04:18:14.020Z,5.87
2023-05-05T04:20:40.422Z,5.99
2023-05-05T04:23:08.155Z,6.08
2023-05-05T04:25:34.570Z,6.08
2023-05-05T04:28:01.065Z,6.19
2023-05-05T04:30:27.873Z,6.17
2023-05-05T04:32:54.255Z,6.24
2023-05-05T04:35:20.790Z,6.32
2023-05-05T04:37:47.591Z,6.46
2023-05-05T04:40:13.946Z,6.52
2023-05-05T04:42:40.384Z,6.61
2023-05-05T04:45:08.906Z,6.72
2023-05-05T04:47:39.141Z,6.73
2023-05-05T04:50:07.138Z,6.87
2023-05-05T04:52:34.162Z,7.03
2023-05-05T04:55:01.083Z,7.20
2023-05-05T04:57:27.477Z,7.25
2023-05-05T04:59:54.177Z,7.61
2023-05-05T05:02:20.969Z,7.98
2023-05-05T05:04:47.395Z,8.40
2023-05-05T05:07:15.339Z,8.26
2023-05-05T05:09:41.724Z,8.62
2023-05-05T05:12:09.573Z,9.28
2023-05-05T05:14:39.881Z,9.70
2023-05-05T05:17:06.688Z,9.90
2023-05-05T05:19:33.057Z,10.20
2023-05-05T05:21:59.682Z,10.66
2023-05-05T05:24:26.168Z,11.11
2023-05-05T05:26:53.021Z,11.39
2023-05-05T05:29:20.308Z,11.65
2023-05-05T05:31:46.743Z,11.97
2023-05-05T05:34:13.465Z,11.76
2023-05-05T05:36:39.805Z,11.67
2023-05-05T05:39:06.302Z,11.74
2023-05-05T05:41:33.137Z,12.27
2023-05-05T05:43:59.494Z,12.74
2023-05-05T05:46:25.851Z,12.99
2023-05-05T05:48:52.806Z,13.51
2023-05-05T05:51:19.211Z,13.41
2023-05-05T05:53:45.544Z,13.12
2023-05-05T05:56:12.310Z,12.80
2023-05-05T05:58:38.948Z,12.43
2023-05-05T06:01:05.830Z,12.23
2023-05-05T06:03:32.352Z,11.98
2023-05-05T06:05:59.142Z,12.24
2023-05-05T06:08:26.870Z,12.34
2023-05-05T06:10:53.293Z,12.34
2023-05-05T06:13:19.826Z,12.35
2023-05-05T06:15:46.557Z,12.56
2023-05-05T06:18:13.006Z,12.40
2023-05-05T06:20:39.457Z,12.29
2023-05-05T06:23:06.475Z,12.31
2023-05-05T06:25:32.832Z,12.56
2023-05-05T06:27:59.940Z,12.83
2023-05-05T06:30:26.857Z,13.04
2023-05-05T06:32:54.254Z,13.80
2023-05-05T06:35:22.636Z,14.08
2023-05-05T06:37:49.039Z,14.11
2023-05-05T06:40:15.568Z,13.97
2023-05-05T06:42:42.254Z,14.21
2023-05-05T06:45:09.130Z,14.91
2023-05-05T06:47:35.890Z,15.08
2023-05-05T06:50:02.789Z,16.04
2023-05-05T06:52:29.230Z,16.38
2023-05-05T06:54:55.919Z,16.54
2023-05-05T06:57:22.234Z,16.60
2023-05-05T06:59:48.967Z,17.70
2023-05-05T07:02:15.376Z,17.99
2023-05-05T07:04:42.991Z,18.74
2023-05-05T07:07:09.346Z,18.62
2023-05-05T07:09:36.372Z,17.42
2023-05-05T07:12:03.503Z,16.99
2023-05-05T07:14:29.859Z,17.16
2023-05-05T07:16:56.743Z,17.53
2023-05-05T07:19:23.542Z,17.37
2023-05-05T07:21:50.450Z,17.21
2023-05-05T07:24:16.781Z,17.42
2023-05-05T07:26:43.390Z,18.12
2023-05-05T07:29:10.263Z,17.87
2023-05-05T07:31:36.610Z,17.53
2023-05-05T07:34:02.983Z,17.72
2023-05-05T07:36:30.026Z,17.18
2023-05-05T07:38:56.432Z,16.57
2023-05-05T07:41:22.798Z,16.71
2023-05-05T07:43:49.517Z,16.72
2023-05-05T07:46:16.009Z,16.97
2023-05-05T07:48:42.424Z,17.53
2023-05-05T07:51:09.752Z,17.53
2023-05-05T07:53:36.882Z,17.25
2023-05-05T07:56:03.461Z,17.21
2023-05-05T07:58:30.390Z,17.06
2023-05-05T08:00:56.763Z,17.04
2023-05-05T08:03:24.713Z,17.01
2023-05-05T08:05:56.084Z,16.79
2023-05-05T08:08:26.782Z,17.11
2023-05-05T08:10:53.377Z,16.78
2023-05-05T08:13:20.642Z,16.96
2023-05-05T08:15:47.224Z,17.38
2023-05-05T08:18:14.192Z,17.21
2023-05-05T08:20:40.984Z,17.41
2023-05-05T08:23:07.339Z,17.50
2023-05-05T08:25:33.692Z,17.55
2023-05-05T08:28:00.448Z,17.93
2023-05-05T08:30:26.999Z,17.82
2023-05-05T08:32:53.453Z,17.91
2023-05-05T08:35:20.177Z,18.36
2023-05-05T08:37:46.587Z,18.62
2023-05-05T08:40:16.605Z,18.64
2023-05-05T08:42:45.980Z,18.37
2023-05-05T08:45:12.981Z,19.35
2023-05-05T08:47:39.670Z,19.56
2023-05-05T08:50:09.834Z,19.27
2023-05-05T08:52:43.505Z,18.79
2023-05-05T08:55:17.913Z,18.53
2023-05-05T08:57:52.038Z,18.35
2023-05-05T09:00:20.731Z,18.32
2023-05-05T09:02:47.919Z,18.48
2023-05-05T09:05:15.573Z,18.71
2023-05-05T09:07:43.653Z,19.00
2023-05-05T09:10:12.100Z,18.51
2023-05-05T09:12:42.383Z,18.01
2023-05-05T09:15:11.482Z,17.58
2023-05-05T09:17:38.880Z,17.53
2023-05-05T09:20:07.442Z,17.69
2023-05-05T09:22:54.081Z,18.41
2023-05-05T09:25:20.794Z,19.05
2023-05-05T09:27:48.898Z,20.23
2023-05-05T09:30:17.602Z,21.17
2023-05-05T09:32:46.075Z,21.89
2023-05-05T09:35:12.623Z,21.67
2023-05-05T09:37:39.020Z,21.89
2023-05-05T09:40:07.671Z,22.02
2023-05-05T09:42:35.697Z,22.13
2023-05-05T09:45:02.056Z,22.62
2023-05-05T09:47:37.999Z,22.95
2023-05-05T09:50:06.059Z,23.03
2023-05-05T09:52:32.647Z,22.84
2023-05-05T09:54:59.565Z,23.10
2023-05-05T09:57:35.011Z,22.53
2023-05-05T10:00:04.526Z,21.97
2023-05-05T10:02:32.736Z,22.06
2023-05-05T10:05:11.478Z,21.38
2023-05-05T10:07:39.181Z,21.47
2023-05-05T10:10:14.420Z,21.72
2023-05-05T10:12:41.223Z,22.38
2023-05-05T10:15:09.855Z,22.54
2023-05-05T10:17:53.976Z,23.18
2023-05-05T10:20:32.945Z,23.23
2023-05-05T10:23:02.922Z,23.35
2023-05-05T10:25:33.658Z,22.25
2023-05-05T10:28:01.168Z,22.03
2023-05-05T10:30:32.086Z,23.02
2023-05-05T10:33:30.062Z,23.02
2023-05-05T10:36:01.812Z,23.18
2023-05-05T10:38:31.005Z,22.67
2023-05-05T10:40:59.367Z,22.50
2023-05-05T10:43:27.244Z,22.82
2023-05-05T10:45:54.718Z,23.63
2023-05-05T10:48:29.736Z,23.63
2023-05-05T10:51:05.582Z,23.10
2023-05-05T10:53:41.633Z,22.83
2023-05-05T10:56:34.189Z,23.74
2023-05-05T10:59:01.004Z,23.67
2023-05-05T11:01:35.665Z,22.39
2023-05-05T11:04:21.991Z,22.14
2023-05-05T11:07:14.641Z,22.65
2023-05-05T11:09:57.802Z,23.37
2023-05-05T11:12:24.608Z,22.58
2023-05-05T11:15:28.443Z,22.90
2023-05-05T11:17:56.983Z,23.46
2023-05-05T11:20:39.895Z,24.29
2023-05-05T11:23:07.299Z,24.13
2023-05-05T11:25:40.878Z,23.70
2023-05-05T11:28:08.988Z,22.75
2023-05-05T11:30:58.690Z,22.75
2023-05-05T11:33:29.773Z,22.13
2023-05-05T11:35:59.288Z,22.85
2023-05-05T11:38:56.456Z,23.34
2023-05-05T11:41:35.028Z,24.00
2023-05-05T11:44:18.692Z,24.59
2023-05-05T11:46:51.128Z,24.96
2023-05-05T11:49:28.264Z,23.77
2023-05-05T11:52:03.937Z,25.04
2023-05-05T11:54:31.258Z,25.07
2023-05-05T11:57:01.849Z,24.89
2023-05-05T11:59:28.175Z,26.65
2023-05-05T12:01:54.753Z,26.97
2023-05-05T12:04:21.188Z,27.08
2023-05-05T12:06:48.915Z,28.41
2023-05-05T12:09:16.823Z,27.50
2023-05-05T12:11:54.021Z,27.20
2023-05-05T12:14:21.821Z,26.97
2023-05-05T12:17:07.036Z,25.60
2023-05-05T12:19:33.649Z,25.74
2023-05-05T12:22:01.166Z,25.91
2023-05-05T12:24:27.967Z,26.17
2023-05-05T12:26:54.805Z,26.78
2023-05-05T12:29:29.287Z,27.20
2023-05-05T12:31:58.262Z,27.48
2023-05-05T12:34:24.825Z,27.25
2023-05-05T12:36:51.452Z,27.91
2023-05-05T12:39:18.261Z,28.23
2023-05-05T12:41:44.688Z,27.41
2023-05-05T12:44:11.062Z,28.19
2023-05-05T12:46:49.162Z,27.95
2023-05-05T12:49:16.629Z,27.48
2023-05-05T12:51:54.645Z,26.93
2023-05-05T12:54:23.277Z,24.79
2023-05-05T12:56:49.678Z,24.99
2023-05-05T12:59:22.733Z,25.79
2023-05-05T13:01:50.963Z,26.38
2023-05-05T13:04:18.187Z,26.21
2023-05-05T13:06:48.834Z,26.22
2023-05-05T13:09:36.612Z,26.59
2023-05-05T13:12:04.810Z,26.62
2023-05-05T13:14:34.949Z,25.92
2023-05-05T13:17:01.337Z,25.84
2023-05-05T13:19:27.968Z,26.26
2023-05-05T13:21:56.762Z,25.71
2023-05-05T13:24:31.637Z,26.26
2023-05-05T13:27:09.250Z,26.27
2023-05-05T13:29:35.620Z,26.73
2023-05-05T13:32:02.003Z,25.72
2023-05-05T13:34:28.854Z,25.60
2023-05-05T13:36:55.332Z,25.12
2023-05-05T13:39:21.758Z,24.91
2023-05-05T13:41:48.193Z,25.05
2023-05-05T13:44:14.630Z,25.01
2023-05-05T13:46:44.244Z,25.53
2023-05-05T13:49:11.103Z,25.93
2023-05-05T13:51:38.921Z,26.44
2023-05-05T13:54:06.724Z,26.85
2023-05-05T13:56:34.034Z,26.56
2023-05-05T13:59:00.877Z,26.17
2023-05-05T14:01:27.344Z,25.85
2023-05-05T14:03:55.571Z,27.22
2023-05-05T14:06:23.526Z,27.79
2023-05-05T14:08:50.126Z,27.43
2023-05-05T14:11:17.945Z,26.43
2023-05-05T14:13:46.339Z,24.21
2023-05-05T14:16:13.571Z,23.08
2023-05-05T14:18:40.080Z,23.10
2023-05-05T14:21:06.480Z,23.61
2023-05-05T14:23:33.294Z,24.73
2023-05-05T14:25:59.731Z,25.15
2023-05-05T14:28:26.347Z,25.59
2023-05-05T14:30:52.994Z,25.21
2023-05-05T14:33:19.588Z,24.28
2023-05-05T14:35:45.930Z,24.24
2023-05-05T14:38:12.343Z,24.74
2023-05-05T14:40:38.682Z,24.51
2023-05-05T14:43:05.000Z,23.18
2023-05-05T14:45:31.881Z,22.75
2023-05-05T14:47:58.541Z,22.49
2023-05-05T14:50:24.939Z,22.25
2023-05-05T14:52:51.317Z,21.90
2023-05-05T14:55:18.114Z,21.85
2023-05-05T14:57:44.470Z,21.83
2023-05-05T15:00:11.227Z,22.10
2023-05-05T15:02:37.689Z,21.61
2023-05-05T15:05:05.063Z,21.39
2023-05-05T15:07:32.060Z,21.20
2023-05-05T15:09:58.439Z,21.56
2023-05-05T15:12:25.904Z,21.57
2023-05-05T15:14:52.737Z,21.64
2023-05-05T15:17:19.273Z,21.75
2023-05-05T15:19:45.742Z,21.69
2023-05-05T15:22:12.417Z,21.49
2023-05-05T15:24:38.797Z,21.20
2023-05-05T15:27:05.197Z,21.06
2023-05-05T15:29:31.985Z,20.89
2023-05-05T15:31:58.375Z,20.64
2023-05-05T15:34:24.809Z,20.38
2023-05-05T15:36:51.811Z,20.37
2023-05-05T15:39:18.692Z,20.45
2023-05-05T15:41:45.119Z,20.38
2023-05-05T15:44:12.350Z,20.26
2023-05-05T15:46:39.634Z,20.18
2023-05-05T15:49:06.495Z,19.67
2023-05-05T15:51:32.862Z,19.34
2023-05-05T15:54:00.159Z,19.40
2023-05-05T15:56:30.003Z,19.29
2023-05-05T15:58:56.796Z,19.26
2023-05-05T16:01:23.255Z,19.20
2023-05-05T16:03:50.038Z,19.17
2023-05-05T16:06:16.453Z,19.12
2023-05-05T16:08:42.945Z,19.18
2023-05-05T16:11:09.973Z,19.09
2023-05-05T16:13:36.331Z,18.98
2023-05-05T16:16:03.195Z,18.70
2023-05-05T16:18:29.879Z,18.31
2023-05-05T16:20:56.196Z,17.78
2023-05-05T16:23:22.764Z,17.42
2023-05-05T16:25:49.518Z,16.90
2023-05-05T16:28:15.894Z,16.60
2023-05-05T16:30:43.547Z,16.31
2023-05-05T16:33:10.241Z,16.07
2023-05-05T16:35:36.712Z,16.01
2023-05-05T16:38:03.806Z,16.12
2023-05-05T16:40:30.180Z,16.28
2023-05-05T16:42:56.892Z,16.53
2023-05-05T16:45:24.247Z,16.56
2023-05-05T16:47:51.397Z,16.60
2023-05-05T16:50:17.842Z,16.64
2023-05-05T16:52:44.198Z,16.65
2023-05-05T16:55:11.272Z,16.55
2023-05-05T16:57:37.927Z,16.25
2023-05-05T17:00:06.734Z,16.27
2023-05-05T17:02:33.693Z,16.20
2023-05-05T17:05:00.137Z,16.26
2023-05-05T17:07:27.313Z,16.27
2023-05-05T17:09:53.668Z,16.16
2023-05-05T17:12:20.130Z,15.91
2023-05-05T17:14:46.907Z,15.69
2023-05-05T17:17:13.954Z,15.54
2023-05-05T17:19:40.395Z,15.49
2023-05-05T17:22:06.715Z,15.35
2023-05-05T17:24:33.499Z,15.13
2023-05-05T17:26:59.816Z,15.06
2023-05-05T17:29:26.438Z,15.07
2023-05-05T17:31:54.062Z,15.10
2023-05-05T17:34:20.549Z,15.16
2023-05-05T17:36:46.892Z,15.20
2023-05-05T17:39:14.024Z,15.22
2023-05-05T17:41:41.861Z,15.18
2023-05-05T17:44:08.229Z,15.11
2023-05-05T17:46:35.181Z,14.95
2023-05-05T17:49:01.555Z,14.87
2023-05-05T17:51:28.140Z,14.78
2023-05-05T17:53:55.044Z,14.70
2023-05-05T17:56:22.037Z,14.54
2023-05-05T17:58:48.830Z,14.30
2023-05-05T18:01:25.862Z,14.26
2023-05-05T18:03:52.667Z,14.23
2023-05-05T18:06:19.059Z,14.26
2023-05-05T18:08:46.040Z,14.19
2023-05-05T18:11:12.588Z,14.15
2023-05-05T18:13:39.405Z,14.19
2023-05-05T18:16:06.888Z,14.20
2023-05-05T18:18:33.384Z,14.11
2023-05-05T18:21:00.378Z,14.14
2023-05-05T18:23:26.931Z,14.09
2023-05-05T18:25:53.323Z,14.06
2023-05-05T18:28:21.034Z,14.02
2023-05-05T18:30:47.353Z,13.93
2023-05-05T18:33:13.673Z,13.96
2023-05-05T18:35:40.651Z,14.00
2023-05-05T18:38:07.038Z,13.83
2023-05-05T18:40:33.401Z,13.83
2023-05-05T18:43:00.202Z,13.69
2023-05-05T18:45:26.550Z,13.65
2023-05-05T18:47:53.710Z,13.63
2023-05-05T18:50:20.119Z,13.57
2023-05-05T18:52:46.482Z,13.68
2023-05-05T18:55:13.269Z,13.55
2023-05-05T18:57:39.673Z,13.55
2023-05-05T19:00:06.773Z,13.53
2023-05-05T19:02:33.176Z,13.51
2023-05-05T19:04:59.615Z,13.47
2023-05-05T19:07:34.864Z,13.54
2023-05-05T19:10:03.544Z,13.63
2023-05-05T19:12:29.904Z,13.59
2023-05-05T19:14:56.273Z,13.55
2023-05-05T19:17:22.841Z,13.63
2023-05-05T19:19:49.737Z,13.58
2023-05-05T19:22:17.333Z,13.49
2023-05-05T19:24:44.096Z,13.51
2023-05-05T19:27:15.470Z,13.50
2023-05-05T19:29:42.703Z,13.46
2023-05-05T19:32:09.464Z,13.47
2023-05-05T19:34:36.234Z,13.47
2023-05-05T19:37:02.569Z,13.50
2023-05-05T19:39:29.226Z,13.50
2023-05-05T19:41:56.225Z,13.48
2023-05-05T19:44:22.734Z,13.46
2023-05-05T19:46:49.501Z,13.52
2023-05-05T19:49:16.336Z,13.49
2023-05-05T19:51:42.829Z,13.57
2023-05-05T19:54:09.610Z,13.53
2023-05-05T19:56:36.270Z,13.37
2023-05-05T19:59:04.923Z,13.22
2023-05-05T20:01:33.489Z,13.23
2023-05-05T20:04:00.019Z,13.29
2023-05-05T20:06:26.912Z,13.32
2023-05-05T20:08:55.102Z,13.28
2023-05-05T20:11:21.779Z,13.26
2023-05-05T20:13:49.639Z,13.29
2023-05-05T20:16:16.850Z,13.36
2023-05-05T20:18:43.604Z,13.37
2023-05-05T20:21:10.498Z,13.32
2023-05-05T20:23:37.886Z,13.31
2023-05-05T20:26:04.407Z,13.24
2023-05-05T20:28:31.595Z,13.23
2023-05-05T20:30:58.459Z,13.06
2023-05-05T20:33:24.822Z,12.96
2023-05-05T20:35:51.143Z,12.93
2023-05-05T20:38:17.578Z,12.94
2023-05-05T20:40:43.928Z,12.96
2023-05-05T20:43:10.261Z,12.91
2023-05-05T20:45:37.463Z,12.88
2023-05-05T20:48:05.238Z,12.94
2023-05-05T20:50:31.827Z,13.11
2023-05-05T20:52:59.180Z,13.13
2023-05-05T20:55:25.904Z,13.05
2023-05-05T20:57:52.245Z,13.05
2023-05-05T21:00:25.040Z,13.05
2023-05-05T21:02:51.399Z,13.05
2023-05-05T21:05:17.999Z,12.98
2023-05-05T21:07:45.386Z,12.93
2023-05-05T21:10:11.987Z,12.72
2023-05-05T21:12:40.212Z,12.55
2023-05-05T21:15:08.445Z,12.40
2023-05-05T21:17:35.020Z,12.35
2023-05-05T21:20:01.529Z,12.23
2023-05-05T21:22:27.979Z,12.15
2023-05-05T21:24:54.556Z,12.08
2023-05-05T21:27:21.076Z,12.01
2023-05-05T21:29:50.705Z,12.02
2023-05-05T21:32:17.127Z,11.98
2023-05-05T21:34:43.585Z,11.99
2023-05-05T21:37:11.907Z,11.99
2023-05-05T21:39:38.219Z,11.96
2023-05-05T21:42:04.638Z,12.00
2023-05-05T21:44:31.140Z,12.05
2023-05-05T21:46:57.512Z,12.06
2023-05-05T21:49:24.326Z,12.05
2023-05-05T21:51:51.057Z,12.08
2023-05-05T21:54:17.388Z,12.15
2023-05-05T21:56:43.723Z,12.16
2023-05-05T21:59:10.298Z,12.28
2023-05-05T22:01:36.856Z,12.32
2023-05-05T22:04:03.540Z,12.21
2023-05-05T22:06:30.341Z,12.27
2023-05-05T22:08:56.948Z,12.21
2023-05-05T22:11:23.593Z,12.17
2023-05-05T22:13:50.458Z,12.18
2023-05-05T22:16:19.913Z,12.12
2023-05-05T22:18:46.711Z,12.18
2023-05-05T22:21:13.322Z,12.15
2023-05-05T22:23:41.683Z,12.35
2023-05-05T22:26:09.355Z,12.36
2023-05-05T22:28:35.982Z,12.34
2023-05-05T22:31:02.555Z,12.36
2023-05-05T22:33:29.420Z,12.40
2023-05-05T22:35:55.935Z,12.39
2023-05-05T22:38:22.564Z,12.33
2023-05-05T22:40:49.293Z,12.35
2023-05-05T22:43:16.218Z,12.24
2023-05-05T22:45:43.410Z,12.29
2023-05-05T22:48:10.121Z,12.25
2023-05-05T22:50:37.780Z,12.14
2023-05-05T22:53:04.196Z,11.97
2023-05-05T22:55:30.850Z,11.99
2023-05-05T22:57:57.525Z,11.75
2023-05-05T23:00:24.092Z,11.68
2023-05-05T23:02:50.610Z,11.71
2023-05-05T23:05:17.587Z,11.86
2023-05-05T23:07:43.968Z,11.83
2023-05-05T23:10:10.672Z,11.82
2023-05-05T23:12:37.535Z,11.93
2023-05-05T23:15:04.583Z,12.02
2023-05-05T23:17:31.078Z,12.03
2023-05-05T23:19:57.986Z,12.09
2023-05-05T23:22:24.342Z,12.15
2023-05-05T23:24:51.008Z,12.17
2023-05-05T23:27:17.732Z,12.24
2023-05-05T23:29:44.077Z,12.30
2023-05-05T23:32:10.582Z,12.24
2023-05-05T23:34:37.319Z,12.26
2023-05-05T23:37:05.925Z,12.35
2023-05-05T23:39:35.414Z,12.41
2023-05-05T23:42:01.770Z,12.34
2023-05-05T23:44:28.081Z,12.25
2023-05-05T23:46:54.998Z,12.24
2023-05-05T23:49:21.372Z,12.23
2023-05-05T23:51:47.691Z,12.21
2023-05-05T23:54:14.408Z,12.23
2023-05-05T23:56:41.028Z,12.30
2023-05-05T23:59:07.357Z,12.36
